Time;durP1;ratioP1;P1;durP2;ratioP2;P2;SDS_P1;SDS_P2;PMS_P1;PMS_P2;Temp;Humidity;BMP_temperature;BMP_pressure;BME280_temperature;BME280_humidity;BME280_pressure;Samples;Min_cycle;Max_cycle;Signal;HPM_P1;HPM_P2
2024/02/07 00:01:41;;;;;;;11.32;2.47;;;;;;;;;;5057340;28;25075;-73
2024/02/07 00:04:07;;;;;;;12.73;2.60;;;;;;;;;;5059914;28;25152;-73
2024/02/07 00:06:34;;;;;;;9.02;2.88;;;;;;;;;;5060838;28;25069;-73
2024/02/07 00:09:00;;;;;;;12.18;3.28;;;;;;;;;;5054488;28;25065;-74
2024/02/07 00:11:26;;;;;;;15.10;3.45;;;;;;;;;;5048163;28;25048;-73
2024/02/07 00:13:52;;;;;;;9.98;3.40;;;;;;;;;;5054132;28;25071;-74
2024/02/07 00:16:19;;;;;;;5.90;1.83;;;;;;;;;;5062869;28;25054;-73
2024/02/07 00:18:45;;;;;;;12.18;2.40;;;;;;;;;;5055242;28;25146;-74
2024/02/07 00:21:11;;;;;;;7.90;1.50;;;;;;;;;;5063936;28;25056;-74
2024/02/07 00:23:37;;;;;;;10.07;1.92;;;;;;;;;;5052892;28;25104;-72
2024/02/07 00:26:03;;;;;;;10.57;2.17;;;;;;;;;;5053357;28;25049;-73
2024/02/07 00:28:29;;;;;;;6.82;1.85;;;;;;;;;;5058645;28;25055;-74
2024/02/07 00:30:55;;;;;;;11.05;2.50;;;;;;;;;;5059932;28;25077;-73
2024/02/07 00:33:21;;;;;;;7.22;1.80;;;;;;;;;;5055388;28;25086;-73
2024/02/07 00:35:47;;;;;;;11.60;2.75;;;;;;;;;;5051198;28;25153;-73
2024/02/07 00:38:13;;;;;;;10.57;2.13;;;;;;;;;;5062388;28;25080;-73
2024/02/07 00:40:39;;;;;;;8.02;2.10;;;;;;;;;;5065688;28;25140;-73
2024/02/07 00:43:05;;;;;;;13.48;2.10;;;;;;;;;;5063311;28;25067;-73
2024/02/07 00:45:32;;;;;;;12.93;2.65;;;;;;;;;;5053568;28;25338;-74
2024/02/07 00:47:58;;;;;;;13.18;1.90;;;;;;;;;;5053995;28;25062;-75
2024/02/07 00:50:24;;;;;;;14.63;2.75;;;;;;;;;;5055893;28;25063;-72
2024/02/07 00:52:50;;;;;;;14.73;3.20;;;;;;;;;;5052209;28;25157;-76
2024/02/07 00:55:16;;;;;;;14.00;2.55;;;;;;;;;;5048641;28;25087;-73
2024/02/07 00:57:42;;;;;;;9.00;2.40;;;;;;;;;;5047275;28;25071;-73
2024/02/07 01:00:14;;;;;;;13.35;3.10;;;;;;;;;;5056839;28;25055;-71
2024/02/07 01:02:41;;;;;;;8.75;3.22;;;;;;;;;;5057200;28;25069;-72
2024/02/07 01:05:08;;;;;;;12.90;2.58;;;;;;;;;;5049848;28;25119;-74
2024/02/07 01:07:35;;;;;;;7.00;2.58;;;;;;;;;;5046616;28;25046;-72
2024/02/07 01:10:01;;;;;;;15.93;3.00;;;;;;;;;;5050850;28;25155;-75
2024/02/07 01:12:27;;;;;;;4.85;2.40;;;;;;;;;;5054506;28;25073;-74
2024/02/07 01:14:54;;;;;;;16.52;3.25;;;;;;;;;;5046526;28;25090;-74
2024/02/07 01:17:20;;;;;;;12.43;3.03;;;;;;;;;;5040157;28;25056;-74
2024/02/07 01:19:48;;;;;;;12.93;2.58;;;;;;;;;;5057180;28;25063;-72
2024/02/07 01:22:14;;;;;;;9.18;2.83;;;;;;;;;;5045347;28;25065;-75
2024/02/07 01:24:41;;;;;;;11.77;3.25;;;;;;;;;;5046825;28;25047;-74
2024/02/07 01:27:07;;;;;;;11.05;3.10;;;;;;;;;;5047683;28;25156;-73
2024/02/07 01:29:37;;;;;;;16.38;3.75;;;;;;;;;;5051299;28;25063;-77
2024/02/07 01:32:04;;;;;;;14.13;3.30;;;;;;;;;;5051898;28;25046;-74
2024/02/07 01:34:30;;;;;;;9.13;2.78;;;;;;;;;;5049967;28;25092;-74
2024/02/07 01:36:57;;;;;;;15.98;3.63;;;;;;;;;;5053683;28;25121;-72
2024/02/07 01:39:23;;;;;;;12.13;3.60;;;;;;;;;;5048918;28;25068;-75
2024/02/07 01:41:59;;;;;;;12.77;3.50;;;;;;;;;;5058616;28;25060;-74
2024/02/07 01:44:25;;;;;;;8.48;3.65;;;;;;;;;;5054348;28;25075;-75
2024/02/07 01:47:11;;;;;;;19.75;4.53;;;;;;;;;;5049034;28;25052;-72
2024/02/07 01:49:37;;;;;;;13.25;3.67;;;;;;;;;;5052386;28;25061;-77
2024/02/07 01:52:03;;;;;;;20.65;3.50;;;;;;;;;;5058689;28;25056;-73
2024/02/07 01:54:29;;;;;;;16.58;3.50;;;;;;;;;;5051546;28;25095;-73
2024/02/07 01:56:55;;;;;;;10.82;3.67;;;;;;;;;;5046300;28;25050;-75
2024/02/07 01:59:21;;;;;;;13.38;3.67;;;;;;;;;;5048174;28;25062;-75
2024/02/07 02:01:47;;;;;;;10.27;3.35;;;;;;;;;;5051836;28;25120;-73
2024/02/07 02:04:13;;;;;;;12.57;3.22;;;;;;;;;;5047819;28;25114;-72
2024/02/07 02:06:39;;;;;;;14.77;3.50;;;;;;;;;;5046437;28;25094;-74
2024/02/07 02:09:06;;;;;;;17.33;3.70;;;;;;;;;;5045534;28;25086;-72
2024/02/07 02:11:36;;;;;;;13.10;3.17;;;;;;;;;;5056370;28;24798;-74
2024/02/07 02:14:02;;;;;;;12.70;3.97;;;;;;;;;;5047317;28;24820;-74
2024/02/07 02:16:28;;;;;;;15.20;3.83;;;;;;;;;;5050987;28;25064;-72
2024/02/07 02:18:54;;;;;;;10.93;3.17;;;;;;;;;;5067053;28;25094;-74
2024/02/07 02:21:24;;;;;;;9.68;3.42;;;;;;;;;;5055937;28;25082;-74
2024/02/07 02:23:53;;;;;;;17.25;3.92;;;;;;;;;;5050504;28;25064;-73
2024/02/07 02:26:19;;;;;;;16.88;3.42;;;;;;;;;;5050449;28;25062;-74
2024/02/07 02:28:52;;;;;;;20.92;4.07;;;;;;;;;;5052231;28;25340;-72
2024/02/07 02:31:18;;;;;;;;;;;;;;;;;;5060793;28;25085;-73
2024/02/07 02:33:45;;;;;;;15.50;3.55;;;;;;;;;;5051276;28;25142;-74
2024/02/07 02:36:11;;;;;;;11.43;3.47;;;;;;;;;;5056295;28;25050;-74
2024/02/07 02:38:37;;;;;;;9.15;3.40;;;;;;;;;;5062139;28;25049;-72
2024/02/07 02:41:03;;;;;;;16.67;3.13;;;;;;;;;;5057908;28;25064;-71
2024/02/07 02:43:30;;;;;;;11.07;2.90;;;;;;;;;;5058156;28;25077;-73
2024/02/07 02:45:56;;;;;;;12.35;3.30;;;;;;;;;;5059940;28;25075;-72
2024/02/07 02:48:22;;;;;;;10.98;3.63;;;;;;;;;;5050981;28;25057;-72
2024/02/07 02:50:48;;;;;;;13.75;3.85;;;;;;;;;;5050167;28;25130;-74
2024/02/07 02:53:17;;;;;;;12.38;3.03;;;;;;;;;;5053281;28;25065;-74
2024/02/07 02:55:43;;;;;;;7.90;3.55;;;;;;;;;;5060097;28;25090;-74
2024/02/07 02:58:10;;;;;;;12.77;3.35;;;;;;;;;;5056866;28;25051;-72
2024/02/07 03:00:36;;;;;;;11.60;3.50;;;;;;;;;;5062226;28;25067;-73
2024/02/07 03:03:02;;;;;;;19.92;4.20;;;;;;;;;;5060578;28;25133;-75
2024/02/07 03:05:45;;;;;;;13.45;3.55;;;;;;;;;;5058117;28;25147;-74
2024/02/07 03:08:21;;;;;;;18.52;3.63;;;;;;;;;;5057259;28;25072;-72
2024/02/07 03:10:49;;;;;;;11.65;3.03;;;;;;;;;;5057373;28;25074;-74
2024/02/07 03:13:15;;;;;;;7.72;2.30;;;;;;;;;;5055672;28;25126;-72
2024/02/07 03:15:41;;;;;;;8.43;2.33;;;;;;;;;;5056301;28;25073;-73
2024/02/07 03:18:07;;;;;;;24.08;2.92;;;;;;;;;;5054689;28;25052;-71
2024/02/07 03:20:35;;;;;;;11.82;2.38;;;;;;;;;;5061728;28;25063;-73
2024/02/07 03:23:01;;;;;;;6.50;2.65;;;;;;;;;;5061667;28;25082;-74
2024/02/07 03:25:27;;;;;;;8.75;2.60;;;;;;;;;;5058177;28;25062;-73
2024/02/07 03:27:54;;;;;;;16.65;3.35;;;;;;;;;;5059302;28;25114;-72
2024/02/07 03:30:21;;;;;;;10.50;3.28;;;;;;;;;;5054000;28;25160;-73
2024/02/07 03:32:48;;;;;;;11.05;2.75;;;;;;;;;;5058258;28;25057;-74
2024/02/07 03:35:14;;;;;;;11.40;2.60;;;;;;;;;;5054178;28;25070;-72
2024/02/07 03:37:41;;;;;;;12.00;2.72;;;;;;;;;;5055677;28;25069;-73
2024/02/07 03:40:13;;;;;;;8.25;3.28;;;;;;;;;;5056199;28;25054;-72
2024/02/07 03:42:41;;;;;;;8.20;2.42;;;;;;;;;;5059127;28;25060;-72
2024/02/07 03:45:07;;;;;;;9.85;2.85;;;;;;;;;;5052826;28;25123;-73
2024/02/07 03:47:34;;;;;;;11.98;2.72;;;;;;;;;;5054252;28;25134;-72
2024/02/07 03:50:05;;;;;;;12.13;3.78;;;;;;;;;;5068910;28;25112;-71
2024/02/07 03:52:33;;;;;;;11.93;3.00;;;;;;;;;;5053157;28;25063;-74
2024/02/07 03:55:00;;;;;;;8.63;3.00;;;;;;;;;;5048531;28;25061;-72
2024/02/07 03:57:26;;;;;;;11.70;3.28;;;;;;;;;;5054590;28;25053;-73
2024/02/07 03:59:52;;;;;;;11.77;3.10;;;;;;;;;;5057826;28;25052;-72
2024/02/07 04:02:23;;;;;;;9.68;2.88;;;;;;;;;;5060113;28;25132;-72
2024/02/07 04:04:50;;;;;;;14.07;2.97;;;;;;;;;;5066168;28;25065;-70
2024/02/07 04:07:17;;;;;;;9.85;2.88;;;;;;;;;;5062940;28;25098;-70
2024/02/07 04:09:45;;;;;;;9.30;2.78;;;;;;;;;;5063490;28;25050;-69
2024/02/07 05:17:19;;;;;;;17.17;5.68;;;;;;;;;;5058237;28;25139;-74
2024/02/07 05:19:46;;;;;;;14.55;5.03;;;;;;;;;;5046863;28;25074;-74
2024/02/07 05:22:12;;;;;;;12.82;4.40;;;;;;;;;;5056457;28;25074;-73
2024/02/07 05:24:39;;;;;;;14.07;4.20;;;;;;;;;;5049866;28;25159;-74
2024/02/07 05:27:10;;;;;;;22.42;4.32;;;;;;;;;;5053023;28;25057;-72
2024/02/07 05:29:36;;;;;;;13.55;4.05;;;;;;;;;;5062227;28;25120;-71
2024/02/07 05:32:02;;;;;;;15.63;3.97;;;;;;;;;;5055540;28;25060;-74
2024/02/07 05:34:28;;;;;;;12.45;4.18;;;;;;;;;;5051722;28;25074;-73
2024/02/07 05:36:54;;;;;;;19.73;4.57;;;;;;;;;;5057478;28;25094;-71
2024/02/07 05:39:20;;;;;;;13.30;4.57;;;;;;;;;;5055463;28;25136;-73
2024/02/07 05:41:47;;;;;;;13.30;4.07;;;;;;;;;;5053617;28;25055;-73
2024/02/07 05:44:13;;;;;;;13.35;4.07;;;;;;;;;;5057999;28;25051;-72
2024/02/07 05:46:39;;;;;;;13.05;3.92;;;;;;;;;;5068738;28;25064;-73
2024/02/07 05:49:05;;;;;;;22.15;4.40;;;;;;;;;;5066603;28;25061;-71
2024/02/07 05:51:31;;;;;;;11.40;4.15;;;;;;;;;;5055498;28;25079;-74
2024/02/07 05:53:57;;;;;;;15.07;4.45;;;;;;;;;;5055279;28;25093;-73
2024/02/07 05:56:23;;;;;;;14.27;4.60;;;;;;;;;;5055671;28;25162;-73
2024/02/07 05:58:51;;;;;;;12.95;4.60;;;;;;;;;;5054746;28;25112;-73
2024/02/07 06:01:17;;;;;;;19.73;4.72;;;;;;;;;;5061543;28;25064;-73
2024/02/07 06:03:50;;;;;;;18.67;5.05;;;;;;;;;;5062143;28;25089;-74
2024/02/07 06:06:19;;;;;;;16.92;4.30;;;;;;;;;;5058503;28;25191;-73
2024/02/07 06:08:49;;;;;;;16.42;4.45;;;;;;;;;;5056227;28;25074;-73
2024/02/07 06:11:15;;;;;;;15.77;5.05;;;;;;;;;;5049539;28;25077;-72
2024/02/07 06:13:41;;;;;;;17.08;4.30;;;;;;;;;;5050476;28;25069;-74
2024/02/07 06:16:07;;;;;;;13.95;4.38;;;;;;;;;;5053648;28;25141;-73
2024/02/07 06:18:35;;;;;;;18.05;5.07;;;;;;;;;;5051014;28;25114;-73
2024/02/07 06:21:01;;;;;;;15.45;4.20;;;;;;;;;;5051087;28;25066;-73
2024/02/07 06:23:27;;;;;;;15.55;4.30;;;;;;;;;;5060307;28;25072;-75
2024/02/07 06:25:53;;;;;;;16.48;4.50;;;;;;;;;;5057542;28;25062;-73
2024/02/07 06:28:19;;;;;;;19.70;4.35;;;;;;;;;;5056960;28;25072;-71
2024/02/07 06:30:45;;;;;;;18.35;3.47;;;;;;;;;;5069149;28;25071;-74
2024/02/07 06:33:11;;;;;;;11.15;3.90;;;;;;;;;;5057023;28;25059;-73
2024/02/07 06:35:37;;;;;;;12.18;4.28;;;;;;;;;;5058108;28;25075;-72
2024/02/07 06:38:03;;;;;;;19.58;4.78;;;;;;;;;;5057496;28;25119;-72
2024/02/07 06:40:30;;;;;;;16.92;3.83;;;;;;;;;;5066382;28;25055;-73
2024/02/07 06:42:56;;;;;;;13.70;3.75;;;;;;;;;;5062089;28;25065;-73
2024/02/07 06:45:22;;;;;;;12.45;5.30;;;;;;;;;;5064761;28;25161;-73
2024/02/07 06:47:48;;;;;;;11.32;4.38;;;;;;;;;;5064490;28;25062;-73
2024/02/07 06:50:14;;;;;;;19.92;4.90;;;;;;;;;;5057690;28;25078;-72
2024/02/07 06:52:41;;;;;;;22.90;4.65;;;;;;;;;;5067405;28;25070;-72
2024/02/07 06:55:07;;;;;;;13.00;4.35;;;;;;;;;;5065295;28;25070;-74
2024/02/07 06:57:33;;;;;;;11.77;4.43;;;;;;;;;;5051021;28;25068;-72
2024/02/07 06:59:59;;;;;;;17.98;4.45;;;;;;;;;;5059109;28;25166;-73
2024/02/07 07:02:25;;;;;;;13.80;4.72;;;;;;;;;;5060980;28;25073;-74
2024/02/07 07:04:51;;;;;;;19.45;6.40;;;;;;;;;;5057186;28;25063;-73
2024/02/07 07:07:17;;;;;;;16.75;4.55;;;;;;;;;;5061613;28;25082;-72
2024/02/07 07:09:43;;;;;;;16.70;4.97;;;;;;;;;;5058379;28;25108;-73
2024/02/07 07:12:09;;;;;;;16.52;5.65;;;;;;;;;;5058345;28;25048;-73
2024/02/07 07:14:40;;;;;;;15.25;5.55;;;;;;;;;;5051080;28;25043;-73
2024/02/07 07:17:06;;;;;;;19.52;6.57;;;;;;;;;;5057088;28;25065;-74
2024/02/07 07:19:32;;;;;;;12.05;5.57;;;;;;;;;;5060217;28;25162;-73
2024/02/07 07:21:58;;;;;;;18.00;5.50;;;;;;;;;;5051912;28;25149;-73
2024/02/07 07:24:24;;;;;;;19.42;5.30;;;;;;;;;;5061825;28;25153;-73
2024/02/07 07:26:50;;;;;;;15.43;5.60;;;;;;;;;;5059937;28;25081;-73
2024/02/07 07:29:17;;;;;;;17.98;6.78;;;;;;;;;;5062438;28;25118;-73
2024/02/07 07:31:43;;;;;;;15.82;5.80;;;;;;;;;;5064435;28;25056;-73
2024/02/07 07:34:09;;;;;;;17.92;5.50;;;;;;;;;;5058212;28;25143;-73
2024/02/07 07:36:35;;;;;;;15.25;5.90;;;;;;;;;;5055273;28;25065;-72
2024/02/07 07:39:01;;;;;;;17.58;5.63;;;;;;;;;;5055203;28;25044;-72
2024/02/07 07:41:28;;;;;;;17.70;6.22;;;;;;;;;;5050868;28;25094;-74
2024/02/07 07:43:54;;;;;;;15.73;5.53;;;;;;;;;;5068191;28;25075;-73
2024/02/07 07:46:20;;;;;;;15.45;5.32;;;;;;;;;;5062786;28;25064;-73
2024/02/07 07:48:46;;;;;;;16.63;5.57;;;;;;;;;;5061115;28;25156;-73
2024/02/07 07:51:15;;;;;;;12.15;5.13;;;;;;;;;;5068186;28;25087;-73
2024/02/07 07:53:41;;;;;;;23.90;5.70;;;;;;;;;;5059326;28;25155;-74
2024/02/07 07:56:07;;;;;;;13.70;5.20;;;;;;;;;;5064636;28;25092;-72
2024/02/07 07:58:37;;;;;;;13.35;5.35;;;;;;;;;;5060056;28;25071;-73
2024/02/07 08:01:04;;;;;;;16.42;5.03;;;;;;;;;;5061645;28;25165;-73
2024/02/07 08:03:30;;;;;;;20.17;5.60;;;;;;;;;;5052458;28;25074;-73
2024/02/07 08:05:56;;;;;;;19.27;5.53;;;;;;;;;;5049833;28;25058;-73
2024/02/07 08:08:22;;;;;;;11.93;4.93;;;;;;;;;;5055243;28;25053;-73
2024/02/07 08:10:48;;;;;;;19.17;5.20;;;;;;;;;;5054392;28;25386;-74
2024/02/07 08:13:14;;;;;;;20.67;4.53;;;;;;;;;;5060190;28;25188;-74
2024/02/07 08:15:40;;;;;;;17.73;5.15;;;;;;;;;;5052095;28;25058;-73
2024/02/07 08:18:06;;;;;;;17.33;5.55;;;;;;;;;;5054092;28;25055;-72
2024/02/07 08:20:32;;;;;;;15.10;5.72;;;;;;;;;;5056229;28;25053;-73
2024/02/07 08:22:58;;;;;;;18.00;5.40;;;;;;;;;;5051855;28;25061;-73
2024/02/07 08:25:24;;;;;;;17.52;5.90;;;;;;;;;;5046185;28;25061;-73
2024/02/07 08:27:50;;;;;;;19.20;6.65;;;;;;;;;;5057129;28;25064;-73
2024/02/07 08:30:16;;;;;;;17.92;5.72;;;;;;;;;;5056300;28;25055;-73
2024/02/07 08:32:42;;;;;;;15.93;5.70;;;;;;;;;;5042545;28;25177;-73
2024/02/07 08:35:08;;;;;;;21.08;6.32;;;;;;;;;;5051166;28;25050;-73
2024/02/07 08:37:36;;;;;;;24.67;6.38;;;;;;;;;;5050098;28;25141;-71
2024/02/07 08:40:02;;;;;;;21.98;6.78;;;;;;;;;;5055556;28;25139;-73
2024/02/07 08:42:29;;;;;;;30.58;6.80;;;;;;;;;;5057162;28;25051;-73
2024/02/07 08:44:55;;;;;;;23.95;6.68;;;;;;;;;;5047188;28;25132;-73
2024/02/07 08:47:21;;;;;;;26.60;8.40;;;;;;;;;;5048573;28;25063;-73
2024/02/07 08:49:47;;;;;;;25.13;7.00;;;;;;;;;;5062585;28;25104;-75
2024/02/07 08:52:13;;;;;;;27.42;7.35;;;;;;;;;;5064020;28;25083;-71
2024/02/07 08:54:39;;;;;;;24.60;7.45;;;;;;;;;;5072013;28;25084;-72
2024/02/07 08:57:08;;;;;;;31.23;6.57;;;;;;;;;;5071385;28;25056;-71
2024/02/07 08:59:34;;;;;;;28.98;5.68;;;;;;;;;;5058076;28;25057;-72
2024/02/07 09:02:02;;;;;;;38.22;7.00;;;;;;;;;;5045086;28;25057;-72
2024/02/07 09:04:28;;;;;;;28.40;6.68;;;;;;;;;;5048373;28;25160;-72
2024/02/07 09:06:54;;;;;;;34.20;5.90;;;;;;;;;;5050259;28;25061;-72
2024/02/07 09:09:20;;;;;;;30.88;6.13;;;;;;;;;;5054658;28;25069;-72
2024/02/07 09:11:46;;;;;;;32.05;6.45;;;;;;;;;;5047100;28;25076;-72
2024/02/07 09:14:12;;;;;;;22.90;5.82;;;;;;;;;;5054165;28;25073;-72
2024/02/07 09:16:38;;;;;;;36.13;6.05;;;;;;;;;;5045522;28;25086;-72
2024/02/07 09:19:07;;;;;;;28.80;5.95;;;;;;;;;;5052340;28;25103;-72
2024/02/07 09:21:33;;;;;;;31.70;7.15;;;;;;;;;;5049679;28;25059;-73
2024/02/07 09:23:59;;;;;;;36.10;6.00;;;;;;;;;;5049490;28;25064;-72
2024/02/07 09:26:29;;;;;;;32.28;6.55;;;;;;;;;;5054477;28;25064;-71
2024/02/07 09:28:55;;;;;;;27.73;6.38;;;;;;;;;;5048958;28;25136;-73
2024/02/07 09:31:21;;;;;;;33.70;6.70;;;;;;;;;;5057781;28;25060;-72
2024/02/07 09:33:47;;;;;;;32.20;6.07;;;;;;;;;;5052171;28;25053;-73
2024/02/07 09:36:13;;;;;;;29.77;5.70;;;;;;;;;;5050076;28;25068;-73
2024/02/07 09:38:39;;;;;;;24.08;5.55;;;;;;;;;;5060710;28;25088;-73
2024/02/07 09:41:05;;;;;;;27.70;5.75;;;;;;;;;;5050315;28;25096;-73
2024/02/07 09:43:32;;;;;;;25.95;4.97;;;;;;;;;;5055113;28;25102;-73
2024/02/07 09:45:58;;;;;;;26.52;5.72;;;;;;;;;;5057476;28;25086;-73
2024/02/07 09:48:25;;;;;;;29.10;6.32;;;;;;;;;;5051518;28;25072;-73
2024/02/07 09:50:57;;;;;;;27.10;5.32;;;;;;;;;;5053485;28;25070;-72
2024/02/07 09:53:25;;;;;;;36.55;6.72;;;;;;;;;;5056813;28;25162;-72
2024/02/07 09:55:52;;;;;;;32.90;6.15;;;;;;;;;;5057260;28;25085;-75
2024/02/07 09:58:19;;;;;;;38.92;6.10;;;;;;;;;;5054031;28;25049;-74
2024/02/07 10:00:45;;;;;;;26.50;5.22;;;;;;;;;;5055803;28;25175;-72
2024/02/07 10:03:14;;;;;;;31.85;7.38;;;;;;;;;;5053454;28;25070;-70
2024/02/07 10:05:42;;;;;;;37.63;8.52;;;;;;;;;;5051088;28;25143;-73
2024/02/07 10:08:09;;;;;;;31.60;5.75;;;;;;;;;;5046822;28;25073;-73
2024/02/07 10:10:38;;;;;;;30.08;5.03;;;;;;;;;;5047975;28;25103;-76
2024/02/07 10:13:04;;;;;;;32.78;7.30;;;;;;;;;;5049958;28;25071;-71
2024/02/07 10:15:30;;;;;;;25.17;5.18;;;;;;;;;;5048589;28;25139;-71
2024/02/07 10:17:56;;;;;;;25.48;6.07;;;;;;;;;;5052603;28;25070;-73
2024/02/07 10:20:24;;;;;;;32.42;5.20;;;;;;;;;;5053841;28;25078;-72
2024/02/07 10:22:50;;;;;;;25.60;5.18;;;;;;;;;;5060401;28;25145;-73
2024/02/07 10:25:16;;;;;;;33.22;6.68;;;;;;;;;;5057715;28;25119;-73
2024/02/07 10:27:42;;;;;;;30.90;5.88;;;;;;;;;;5048532;28;25084;-73
2024/02/07 10:30:09;;;;;;;27.58;6.07;;;;;;;;;;5053935;28;25111;-74
2024/02/07 10:32:35;;;;;;;28.17;5.53;;;;;;;;;;5053859;28;25054;-73
2024/02/07 10:35:02;;;;;;;33.63;6.63;;;;;;;;;;5053058;28;25091;-73
2024/02/07 10:37:28;;;;;;;35.08;6.03;;;;;;;;;;5056813;28;25045;-74
2024/02/07 10:40:03;;;;;;;26.77;5.28;;;;;;;;;;5055641;28;25069;-72
2024/02/07 10:42:30;;;;;;;32.45;6.55;;;;;;;;;;5051240;28;25146;-74
2024/02/07 10:45:06;;;;;;;33.95;6.47;;;;;;;;;;5052914;28;25079;-73
2024/02/07 10:47:36;;;;;;;31.52;6.35;;;;;;;;;;5050107;28;25069;-72
2024/02/07 10:50:02;;;;;;;20.58;4.80;;;;;;;;;;5062865;28;25053;-73
2024/02/07 10:52:28;;;;;;;25.33;5.53;;;;;;;;;;5059932;28;25063;-71
2024/02/07 10:54:54;;;;;;;31.30;6.70;;;;;;;;;;5056811;28;25064;-71
2024/02/07 10:57:27;;;;;;;29.90;6.03;;;;;;;;;;5050812;28;25056;-73
2024/02/07 10:59:54;;;;;;;24.38;4.82;;;;;;;;;;5050315;28;25091;-72
2024/02/07 11:02:21;;;;;;;36.35;6.53;;;;;;;;;;5053720;28;25067;-71
2024/02/07 11:04:47;;;;;;;26.52;5.80;;;;;;;;;;5053673;28;25070;-71
2024/02/07 11:07:15;;;;;;;34.50;5.78;;;;;;;;;;5055215;28;25064;-73
2024/02/07 11:09:44;;;;;;;30.55;5.95;;;;;;;;;;5057222;28;25104;-72
2024/02/07 11:12:10;;;;;;;32.17;5.07;;;;;;;;;;5054158;28;25054;-73
2024/02/07 11:14:37;;;;;;;36.38;5.93;;;;;;;;;;5052772;28;25065;-73
2024/02/07 11:17:03;;;;;;;26.70;5.25;;;;;;;;;;5061638;28;25077;-70
2024/02/07 11:19:29;;;;;;;22.73;5.50;;;;;;;;;;5066276;28;25093;-71
2024/02/07 11:21:56;;;;;;;33.13;5.18;;;;;;;;;;5066585;28;25087;-71
2024/02/07 11:24:23;;;;;;;38.83;6.93;;;;;;;;;;5069667;28;25063;-71
2024/02/07 11:26:49;;;;;;;38.97;7.13;;;;;;;;;;5069641;28;25057;-72
2024/02/07 11:29:15;;;;;;;19.83;4.97;;;;;;;;;;5078614;28;25104;-73
2024/02/07 11:31:43;;;;;;;27.50;5.78;;;;;;;;;;5071875;28;25065;-72
2024/02/07 11:34:09;;;;;;;30.92;5.72;;;;;;;;;;5070011;28;25103;-72
2024/02/07 11:36:35;;;;;;;27.92;5.13;;;;;;;;;;5069071;28;25068;-71
2024/02/07 11:39:01;;;;;;;25.23;5.20;;;;;;;;;;5078236;28;25105;-72
2024/02/07 11:41:27;;;;;;;23.58;4.40;;;;;;;;;;5052576;28;25085;-73
2024/02/07 11:44:02;;;;;;;26.23;5.13;;;;;;;;;;5052148;28;25054;-73
2024/02/07 11:46:28;;;;;;;24.25;5.13;;;;;;;;;;5059099;28;25117;-73
2024/02/07 11:48:54;;;;;;;25.40;5.97;;;;;;;;;;5053055;28;25160;-73
2024/02/07 11:51:24;;;;;;;25.85;4.45;;;;;;;;;;5047997;28;25073;-73
2024/02/07 11:53:50;;;;;;;33.78;5.68;;;;;;;;;;5053727;28;25068;-71
2024/02/07 11:56:23;;;;;;;25.48;5.63;;;;;;;;;;5053861;28;25068;-71
2024/02/07 11:58:53;;;;;;;34.10;6.63;;;;;;;;;;5063454;28;25098;-70
2024/02/07 12:01:21;;;;;;;29.27;5.85;;;;;;;;;;5050758;28;25152;-70
2024/02/07 12:03:54;;;;;;;25.27;4.68;;;;;;;;;;5053372;28;25069;-70
2024/02/07 12:06:20;;;;;;;27.02;6.00;;;;;;;;;;5056200;28;25055;-72
2024/02/07 12:08:47;;;;;;;24.27;4.72;;;;;;;;;;5048704;28;25071;-71
2024/02/07 12:11:13;;;;;;;28.02;5.55;;;;;;;;;;5053677;28;25080;-70
2024/02/07 12:13:39;;;;;;;30.38;5.40;;;;;;;;;;5061297;28;25112;-73
2024/02/07 12:16:09;;;;;;;29.45;5.90;;;;;;;;;;5046106;28;25104;-73
2024/02/07 12:18:39;;;;;;;24.27;4.85;;;;;;;;;;5054464;28;25077;-74
2024/02/07 12:21:05;;;;;;;31.23;4.63;;;;;;;;;;5053038;28;25078;-76
2024/02/07 12:23:32;;;;;;;29.35;5.32;;;;;;;;;;5059245;28;25119;-72
2024/02/07 12:25:58;;;;;;;23.95;4.35;;;;;;;;;;5047242;28;25100;-73
2024/02/07 12:28:25;;;;;;;29.48;5.25;;;;;;;;;;5057008;28;25142;-74
2024/02/07 12:30:52;;;;;;;23.38;4.28;;;;;;;;;;5063282;28;25110;-69
2024/02/07 12:33:17;;;;;;;27.10;4.25;;;;;;;;;;5054190;28;25072;-73
2024/02/07 12:35:51;;;;;;;30.23;5.40;;;;;;;;;;5052372;28;25077;-72
2024/02/07 12:38:17;;;;;;;33.10;5.63;;;;;;;;;;5053732;28;25145;-74
2024/02/07 12:40:43;;;;;;;28.30;4.50;;;;;;;;;;5051685;28;25184;-79
2024/02/07 12:43:09;;;;;;;25.25;5.63;;;;;;;;;;5057558;28;25153;-79
2024/02/07 12:45:35;;;;;;;25.23;5.32;;;;;;;;;;5056681;28;25075;-73
2024/02/07 12:48:01;;;;;;;20.40;4.50;;;;;;;;;;5048728;28;25044;-75
2024/02/07 12:50:27;;;;;;;27.23;4.60;;;;;;;;;;5060291;28;25049;-73
2024/02/07 12:52:53;;;;;;;24.15;3.53;;;;;;;;;;5050358;28;25070;-72
2024/02/07 12:55:20;;;;;;;27.73;5.72;;;;;;;;;;5052212;28;25069;-73
2024/02/07 12:57:45;;;;;;;24.70;4.45;;;;;;;;;;5046188;28;25103;-73
2024/02/07 13:00:12;;;;;;;31.90;4.97;;;;;;;;;;5050613;28;25100;-76
2024/02/07 13:02:48;;;;;;;27.65;5.10;;;;;;;;;;5046980;28;25134;-73
2024/02/07 13:05:14;;;;;;;27.05;4.97;;;;;;;;;;5057602;28;25073;-73
2024/02/07 13:07:40;;;;;;;24.85;4.97;;;;;;;;;;5062374;28;25082;-74
2024/02/07 13:10:06;;;;;;;25.55;5.45;;;;;;;;;;5064694;28;25062;-74
2024/02/07 13:12:33;;;;;;;22.92;4.97;;;;;;;;;;5057500;28;25073;-73
2024/02/07 13:15:00;;;;;;;29.27;5.10;;;;;;;;;;5069972;28;25070;-73
2024/02/07 13:17:26;;;;;;;28.05;4.45;;;;;;;;;;5064508;28;25155;-71
2024/02/07 13:19:52;;;;;;;24.83;5.45;;;;;;;;;;5059462;28;25146;-72
2024/02/07 13:22:18;;;;;;;24.95;4.38;;;;;;;;;;5055759;28;25066;-73
2024/02/07 13:24:44;;;;;;;30.77;5.07;;;;;;;;;;5056460;28;25132;-73
2024/02/07 13:27:11;;;;;;;27.15;4.80;;;;;;;;;;5058886;28;25137;-73
2024/02/07 13:29:41;;;;;;;22.67;5.10;;;;;;;;;;5065289;28;25077;-73
2024/02/07 13:32:12;;;;;;;27.13;4.57;;;;;;;;;;5045730;28;24992;-71
2024/02/07 13:34:38;;;;;;;26.52;5.05;;;;;;;;;;5059869;28;25083;-71
2024/02/07 13:37:04;;;;;;;29.73;4.80;;;;;;;;;;5056100;28;25068;-69
2024/02/07 13:39:30;;;;;;;24.63;4.75;;;;;;;;;;5053517;28;25061;-70
2024/02/07 13:41:57;;;;;;;15.52;4.45;;;;;;;;;;5052562;28;25070;-69
2024/02/07 13:44:23;;;;;;;23.17;4.47;;;;;;;;;;5061250;28;25091;-71
2024/02/07 13:46:49;;;;;;;26.65;4.22;;;;;;;;;;5048481;28;25121;-72
2024/02/07 13:49:15;;;;;;;33.22;5.05;;;;;;;;;;5057226;28;25143;-72
2024/02/07 13:51:42;;;;;;;24.38;5.18;;;;;;;;;;5055068;28;25090;-73
2024/02/07 13:54:08;;;;;;;23.80;4.32;;;;;;;;;;5057961;28;25102;-71
2024/02/07 13:56:34;;;;;;;21.02;4.20;;;;;;;;;;5054979;28;25058;-71
2024/02/07 13:59:00;;;;;;;14.80;3.72;;;;;;;;;;5059378;28;25103;-71
2024/02/07 14:01:26;;;;;;;25.77;4.63;;;;;;;;;;5054784;28;25055;-73
2024/02/07 14:03:52;;;;;;;20.70;4.47;;;;;;;;;;5052676;28;25150;-73
2024/02/07 14:06:18;;;;;;;26.00;5.00;;;;;;;;;;5051501;28;25067;-73
2024/02/07 14:08:44;;;;;;;25.13;4.57;;;;;;;;;;5051788;28;25084;-73
2024/02/07 14:11:10;;;;;;;21.58;4.93;;;;;;;;;;5056918;28;25151;-70
2024/02/07 14:13:39;;;;;;;34.40;4.75;;;;;;;;;;5051138;28;25104;-71
2024/02/07 14:16:05;;;;;;;24.02;4.57;;;;;;;;;;5048668;28;25058;-71
2024/02/07 14:18:32;;;;;;;22.58;4.18;;;;;;;;;;5051998;28;25131;-70
2024/02/07 14:20:58;;;;;;;26.83;4.60;;;;;;;;;;5050247;28;25054;-71
2024/02/07 14:23:24;;;;;;;34.17;5.18;;;;;;;;;;5054664;28;25062;-71
2024/02/07 14:25:50;;;;;;;28.73;5.50;;;;;;;;;;5059677;28;25063;-74
2024/02/07 14:28:17;;;;;;;29.77;4.72;;;;;;;;;;5060240;28;25095;-75
2024/02/07 14:30:43;;;;;;;28.80;4.80;;;;;;;;;;5056031;28;25150;-74
2024/02/07 14:33:11;;;;;;;23.52;4.78;;;;;;;;;;5058223;28;25163;-70
2024/02/07 14:35:37;;;;;;;23.90;4.82;;;;;;;;;;5053116;28;25078;-71
2024/02/07 14:38:04;;;;;;;31.70;5.00;;;;;;;;;;5060481;28;25054;-71
2024/02/07 14:40:30;;;;;;;22.92;4.70;;;;;;;;;;5059089;28;25067;-73
2024/02/07 14:42:56;;;;;;;20.33;4.18;;;;;;;;;;5048064;28;25071;-72
2024/02/07 14:45:22;;;;;;;23.83;4.35;;;;;;;;;;5063136;28;25068;-74
2024/02/07 14:47:48;;;;;;;30.33;5.00;;;;;;;;;;5060280;28;25163;-74
2024/02/07 14:50:14;;;;;;;31.52;5.03;;;;;;;;;;5056032;28;25057;-72
2024/02/07 14:52:40;;;;;;;27.25;4.93;;;;;;;;;;5051934;28;25109;-74
2024/02/07 14:55:06;;;;;;;18.13;4.00;;;;;;;;;;5052495;28;25056;-70
2024/02/07 14:57:32;;;;;;;23.73;6.38;;;;;;;;;;5049092;28;25066;-73
2024/02/07 14:59:58;;;;;;;27.00;4.40;;;;;;;;;;5057940;28;25093;-73
2024/02/07 15:02:25;;;;;;;21.33;5.63;;;;;;;;;;5060021;28;25062;-73
2024/02/07 15:04:51;;;;;;;28.52;4.10;;;;;;;;;;5050484;28;25053;-72
2024/02/07 15:07:17;;;;;;;25.73;4.55;;;;;;;;;;5059289;28;25046;-71
2024/02/07 15:09:43;;;;;;;16.42;4.35;;;;;;;;;;5051930;28;25054;-72
2024/02/07 15:12:09;;;;;;;19.50;3.70;;;;;;;;;;5049211;28;25089;-71
2024/02/07 15:14:35;;;;;;;24.85;4.28;;;;;;;;;;5051580;28;25062;-70
2024/02/07 15:17:02;;;;;;;21.15;3.60;;;;;;;;;;5049992;28;25076;-70
2024/02/07 15:19:28;;;;;;;34.03;4.53;;;;;;;;;;5028598;28;25087;-70
2024/02/07 15:21:57;;;;;;;25.95;5.18;;;;;;;;;;5059982;28;25151;-72
2024/02/07 15:24:23;;;;;;;34.45;5.45;;;;;;;;;;5060776;28;25061;-69
2024/02/07 15:26:49;;;;;;;19.15;4.35;;;;;;;;;;5060637;28;25073;-70
2024/02/07 15:29:15;;;;;;;22.20;4.03;;;;;;;;;;5055021;28;25066;-73
2024/02/07 15:31:41;;;;;;;22.58;4.72;;;;;;;;;;5049156;28;25071;-70
2024/02/07 15:34:10;;;;;;;24.55;4.43;;;;;;;;;;5060578;28;25090;-72